createdAt,value
2018-05-31T00:01:06.949Z,8.13
2018-05-31T00:03:34.915Z,7.77
2018-05-31T00:06:02.478Z,9.17
2018-05-31T00:08:30.256Z,8.80
2018-05-31T00:10:57.966Z,8.33
2018-05-31T00:13:26.316Z,8.10
2018-05-31T00:15:54.962Z,8.50
2018-05-31T00:18:22.593Z,9.13
2018-05-31T00:20:50.227Z,8.67
2018-05-31T00:23:19.157Z,8.40
2018-05-31T00:25:46.779Z,8.67
2018-05-31T00:28:15.141Z,9.67
2018-05-31T00:30:42.734Z,8.83
2018-05-31T00:33:11.257Z,11.67
2018-05-31T00:35:38.863Z,10.37
2018-05-31T00:38:07.268Z,11.10
2018-05-31T00:40:34.957Z,11.30
2018-05-31T00:43:02.569Z,11.43
2018-05-31T00:45:30.947Z,12.10
2018-05-31T00:47:59.290Z,12.87
2018-05-31T00:50:27.159Z,12.93
2018-05-31T00:52:54.798Z,13.40
2018-05-31T00:55:34.442Z,13.57
2018-05-31T00:58:02.068Z,13.67
2018-05-31T01:00:29.697Z,13.07
2018-05-31T01:02:57.322Z,12.73
2018-05-31T01:05:25.732Z,13.60
2018-05-31T01:07:53.374Z,13.77
2018-05-31T01:10:20.974Z,13.97
2018-05-31T01:12:49.370Z,13.53
2018-05-31T01:15:17.145Z,13.40
2018-05-31T01:17:44.765Z,13.53
2018-05-31T01:20:14.445Z,13.03
2018-05-31T01:22:42.413Z,13.83
2018-05-31T01:25:10.134Z,13.43
2018-05-31T01:27:37.823Z,13.40
2018-05-31T01:30:05.509Z,13.57
2018-05-31T01:32:33.073Z,12.57
2018-05-31T01:35:00.688Z,13.10
2018-05-31T01:37:29.196Z,13.63
2018-05-31T01:39:57.058Z,12.40
2018-05-31T01:42:25.573Z,12.67
2018-05-31T01:44:53.167Z,12.70
2018-05-31T01:47:20.781Z,12.67
2018-05-31T01:49:48.535Z,12.73
2018-05-31T01:52:16.113Z,12.50
2018-05-31T01:54:43.745Z,12.03
2018-05-31T01:57:11.444Z,12.23
2018-05-31T01:59:39.105Z,11.93
2018-05-31T02:02:06.850Z,11.83
2018-05-31T02:04:35.646Z,12.90
2018-05-31T02:07:03.253Z,12.63
2018-05-31T02:09:30.859Z,12.03
2018-05-31T02:11:58.519Z,12.27
2018-05-31T02:14:26.077Z,11.33
2018-05-31T02:16:53.683Z,12.93
2018-05-31T02:19:21.469Z,12.53
2018-05-31T02:21:49.070Z,13.13
2018-05-31T02:24:16.650Z,12.53
2018-05-31T02:26:44.568Z,11.20
2018-05-31T02:29:12.154Z,12.27
2018-05-31T02:31:39.740Z,12.37
2018-05-31T02:34:08.145Z,12.97
2018-05-31T02:36:35.937Z,13.20
2018-05-31T02:39:03.574Z,13.60
2018-05-31T02:41:31.158Z,13.67
2018-05-31T02:43:58.793Z,13.83
2018-05-31T02:46:26.412Z,12.97
2018-05-31T02:48:54.351Z,14.07
2018-05-31T02:51:21.940Z,13.90
2018-05-31T02:53:49.546Z,14.03
2018-05-31T02:56:17.165Z,15.13
2018-05-31T02:58:45.243Z,14.37
2018-05-31T03:01:13.711Z,15.07
2018-05-31T03:03:42.129Z,15.63
2018-05-31T03:06:10.253Z,14.80
2018-05-31T03:08:37.994Z,14.63
2018-05-31T03:11:06.371Z,15.27
2018-05-31T03:13:34.162Z,15.07
2018-05-31T03:16:01.789Z,14.50
2018-05-31T03:18:29.391Z,15.30
2018-05-31T03:20:57.892Z,15.23
2018-05-31T03:23:25.494Z,14.93
2018-05-31T03:25:54.892Z,14.80
2018-05-31T03:28:22.562Z,14.23
2018-05-31T03:30:50.139Z,14.70
2018-05-31T03:33:17.782Z,15.13
2018-05-31T03:35:45.395Z,15.77
2018-05-31T03:38:13.930Z,14.70
2018-05-31T03:40:42.299Z,14.70
2018-05-31T03:43:09.926Z,14.33
2018-05-31T03:45:37.506Z,15.03
2018-05-31T03:48:05.129Z,14.90
2018-05-31T03:50:33.556Z,14.60
2018-05-31T03:53:01.139Z,14.10
2018-05-31T03:55:29.094Z,14.90
2018-05-31T03:57:56.855Z,13.27
2018-05-31T04:00:24.516Z,13.70
2018-05-31T04:02:52.137Z,13.73
2018-05-31T04:05:19.748Z,13.17
2018-05-31T04:07:47.344Z,14.00
2018-05-31T04:10:15.738Z,13.00
2018-05-31T04:12:43.541Z,13.70
2018-05-31T04:15:11.202Z,13.70
2018-05-31T04:17:38.798Z,13.10
2018-05-31T04:20:06.380Z,13.27
2018-05-31T04:22:34.831Z,13.73
2018-05-31T04:25:02.424Z,14.80
2018-05-31T04:27:30.049Z,14.90
2018-05-31T04:29:58.439Z,15.43
2018-05-31T04:32:27.155Z,15.17
2018-05-31T04:34:54.946Z,14.20
2018-05-31T04:37:22.551Z,15.30
2018-05-31T04:39:50.913Z,14.33
2018-05-31T04:42:18.522Z,15.07
2018-05-31T04:44:46.233Z,14.03
2018-05-31T04:47:14.282Z,14.43
2018-05-31T04:49:42.068Z,14.40
2018-05-31T04:52:10.259Z,13.70
2018-05-31T04:54:39.113Z,13.13
2018-05-31T04:57:06.989Z,13.17
2018-05-31T04:59:34.579Z,13.00
2018-05-31T05:02:03.233Z,13.07
2018-05-31T05:04:31.104Z,12.40
2018-05-31T05:06:58.725Z,12.90
2018-05-31T05:09:26.338Z,12.63
2018-05-31T05:11:53.963Z,11.17
2018-05-31T05:14:22.659Z,11.73
2018-05-31T05:16:50.250Z,11.03
2018-05-31T05:19:19.361Z,11.10
2018-05-31T05:21:47.903Z,10.60
2018-05-31T05:24:16.183Z,10.20
2018-05-31T05:26:43.906Z,10.10
2018-05-31T05:29:11.516Z,9.70
2018-05-31T05:31:39.926Z,10.30
2018-05-31T05:34:08.698Z,10.90
2018-05-31T05:36:36.837Z,11.30
2018-05-31T05:39:06.022Z,10.93
2018-05-31T05:41:33.617Z,11.40
2018-05-31T05:44:01.761Z,11.27
2018-05-31T05:46:29.371Z,11.33
2018-05-31T05:48:59.119Z,12.47
2018-05-31T05:51:26.719Z,11.47
2018-05-31T05:53:54.278Z,11.90
2018-05-31T05:56:21.863Z,11.70
2018-05-31T05:58:49.474Z,11.83
2018-05-31T06:01:17.041Z,11.20
2018-05-31T06:03:45.301Z,11.33
2018-05-31T06:06:12.979Z,12.07
2018-05-31T06:08:40.567Z,11.57
2018-05-31T06:11:09.022Z,12.60
2018-05-31T06:13:36.606Z,11.23
2018-05-31T06:16:05.151Z,11.40
2018-05-31T06:18:32.767Z,10.10
2018-05-31T06:21:00.472Z,10.00
2018-05-31T06:23:28.027Z,9.70
2018-05-31T06:25:55.712Z,9.20
2018-05-31T06:28:23.302Z,9.10
2018-05-31T06:30:51.639Z,9.73
2018-05-31T06:33:19.244Z,9.90
2018-05-31T06:35:47.582Z,10.00
2018-05-31T06:38:15.157Z,9.07
2018-05-31T06:40:42.735Z,9.07
2018-05-31T06:43:10.312Z,8.00
2018-05-31T06:45:37.907Z,8.30
2018-05-31T06:48:06.028Z,8.87
2018-05-31T06:50:34.427Z,8.80
2018-05-31T06:53:03.529Z,8.30
2018-05-31T06:55:31.246Z,8.17
2018-05-31T06:57:58.882Z,8.37
2018-05-31T07:00:26.415Z,8.60
2018-05-31T07:02:54.008Z,8.23
2018-05-31T07:05:21.672Z,8.27
2018-05-31T07:07:49.218Z,7.67
2018-05-31T07:10:16.785Z,7.23
2018-05-31T07:12:44.463Z,8.70
2018-05-31T07:15:12.035Z,8.00
2018-05-31T07:17:39.734Z,8.30
2018-05-31T07:20:07.326Z,7.87
2018-05-31T07:22:34.918Z,7.70
2018-05-31T07:25:02.746Z,7.27
2018-05-31T07:27:30.328Z,7.20
2018-05-31T07:29:57.908Z,6.93
2018-05-31T07:32:25.485Z,6.10
2018-05-31T07:34:53.802Z,6.50
2018-05-31T07:37:21.407Z,5.97
2018-05-31T07:39:48.982Z,6.70
2018-05-31T07:42:17.306Z,6.73
2018-05-31T07:44:44.894Z,6.77
2018-05-31T07:47:13.206Z,6.67
2018-05-31T07:49:40.776Z,7.33
2018-05-31T07:52:08.327Z,7.30
2018-05-31T07:54:36.023Z,7.03
2018-05-31T07:57:03.615Z,6.23
2018-05-31T07:59:31.194Z,7.20
2018-05-31T08:01:59.517Z,6.70
2018-05-31T08:04:27.113Z,6.70
2018-05-31T08:06:54.719Z,6.13
2018-05-31T08:09:22.359Z,6.60
2018-05-31T08:11:50.683Z,6.87
2018-05-31T08:14:18.259Z,6.57
2018-05-31T08:16:45.847Z,6.63
2018-05-31T08:19:14.162Z,6.67
2018-05-31T08:21:41.761Z,7.50
2018-05-31T08:24:09.319Z,6.53
2018-05-31T08:26:37.142Z,6.60
2018-05-31T08:29:04.816Z,6.10
2018-05-31T08:31:32.429Z,6.10
2018-05-31T08:33:59.933Z,6.17
2018-05-31T08:36:27.517Z,6.13
2018-05-31T08:38:55.170Z,6.30
2018-05-31T08:41:22.709Z,5.80
2018-05-31T08:43:50.866Z,6.03
2018-05-31T08:46:18.418Z,6.37
2018-05-31T08:48:45.985Z,5.77
2018-05-31T08:51:13.599Z,5.73
2018-05-31T08:53:41.275Z,5.57
2018-05-31T08:56:09.659Z,5.53
2018-05-31T08:58:38.146Z,4.78
2018-05-31T09:01:06.499Z,4.77
2018-05-31T09:03:34.854Z,5.03
2018-05-31T09:06:03.192Z,4.75
2018-05-31T09:08:30.925Z,5.10
2018-05-31T09:10:59.300Z,5.55
2018-05-31T09:13:27.643Z,5.93
2018-05-31T09:15:55.236Z,5.20
2018-05-31T09:18:24.377Z,6.35
2018-05-31T09:20:52.000Z,5.60
2018-05-31T09:23:20.333Z,5.70
2018-05-31T09:25:48.050Z,6.20
2018-05-31T09:28:16.720Z,5.70
2018-05-31T09:30:45.053Z,6.07
2018-05-31T09:33:12.601Z,5.85
2018-05-31T09:35:40.193Z,6.05
2018-05-31T09:38:07.860Z,5.97
2018-05-31T09:40:35.504Z,6.72
2018-05-31T09:43:03.078Z,6.10
2018-05-31T09:45:30.703Z,6.20
2018-05-31T09:47:58.394Z,6.15
2018-05-31T09:50:25.963Z,6.18
2018-05-31T09:52:53.592Z,5.57
2018-05-31T09:55:21.203Z,5.68
2018-05-31T09:57:49.568Z,6.10
2018-05-31T10:00:17.125Z,6.40
2018-05-31T10:02:44.725Z,6.10
2018-05-31T10:05:12.309Z,5.68
2018-05-31T10:07:39.921Z,6.22
2018-05-31T10:10:08.235Z,6.12
2018-05-31T10:12:35.838Z,5.70
2018-05-31T10:15:03.560Z,6.00
2018-05-31T10:17:31.147Z,6.03
2018-05-31T10:19:58.721Z,5.93
2018-05-31T10:22:27.075Z,6.22
2018-05-31T10:24:54.813Z,5.55
2018-05-31T10:27:22.404Z,5.80
2018-05-31T10:29:49.964Z,5.80
2018-05-31T10:32:17.516Z,5.65
2018-05-31T10:34:45.144Z,5.68
2018-05-31T10:37:12.710Z,6.15
2018-05-31T10:39:40.256Z,5.80
2018-05-31T10:42:07.845Z,5.70
2018-05-31T10:44:35.516Z,6.03
2018-05-31T10:47:03.085Z,5.70
2018-05-31T10:49:30.727Z,5.25
2018-05-31T10:51:58.308Z,5.43
2018-05-31T10:54:25.911Z,5.10
2018-05-31T10:56:53.488Z,5.12
2018-05-31T10:59:21.300Z,5.70
2018-05-31T11:01:48.871Z,5.32
2018-05-31T11:04:17.185Z,5.80
2018-05-31T11:06:44.735Z,4.87
2018-05-31T11:09:12.325Z,5.05
2018-05-31T11:11:39.895Z,5.78
2018-05-31T11:14:07.455Z,5.57
2018-05-31T11:16:35.839Z,6.00
2018-05-31T11:19:03.688Z,5.80
2018-05-31T11:21:31.940Z,6.10
2018-05-31T11:23:59.529Z,5.78
2018-05-31T11:26:27.075Z,5.22
2018-05-31T11:28:54.654Z,5.47
2018-05-31T11:31:22.288Z,5.40
2018-05-31T11:33:49.914Z,5.97
2018-05-31T11:36:18.257Z,5.28
2018-05-31T11:38:45.887Z,5.78
2018-05-31T11:41:13.511Z,7.40
2018-05-31T11:43:41.834Z,6.57
2018-05-31T11:46:09.396Z,5.20
2018-05-31T11:48:36.993Z,5.68
2018-05-31T11:51:05.332Z,5.93
2018-05-31T11:53:33.299Z,5.90
2018-05-31T11:56:00.893Z,5.55
2018-05-31T11:58:28.720Z,5.40
2018-05-31T12:00:56.293Z,5.43
2018-05-31T12:03:23.909Z,5.35
2018-05-31T12:05:51.462Z,6.40
2018-05-31T12:08:21.575Z,5.15
2018-05-31T12:10:49.147Z,6.10
2018-05-31T12:13:16.722Z,6.28
2018-05-31T12:15:44.320Z,6.15
2018-05-31T12:18:12.166Z,9.13
2018-05-31T12:20:40.784Z,6.25
2018-05-31T12:23:08.344Z,8.15
2018-05-31T12:25:36.215Z,22.70
2018-05-31T12:28:03.793Z,6.60
2018-05-31T12:30:31.341Z,4.95
2018-05-31T12:32:59.862Z,4.70
2018-05-31T12:35:27.427Z,5.25
2018-05-31T12:37:54.975Z,5.32
2018-05-31T12:40:22.549Z,5.07
2018-05-31T12:42:50.147Z,5.53
2018-05-31T12:45:17.698Z,5.47
2018-05-31T12:47:45.331Z,5.70
2018-05-31T12:50:12.887Z,11.30
2018-05-31T12:52:40.453Z,8.00
2018-05-31T12:55:08.029Z,5.27
2018-05-31T12:57:35.589Z,4.10
2018-05-31T13:00:03.188Z,4.00
2018-05-31T13:02:30.749Z,4.67
2018-05-31T13:04:58.307Z,5.60
2018-05-31T13:07:26.004Z,4.87
2018-05-31T13:09:53.556Z,3.90
2018-05-31T13:12:21.096Z,4.20
2018-05-31T13:14:49.256Z,4.43
2018-05-31T13:17:16.953Z,4.60
2018-05-31T13:19:44.683Z,4.47
2018-05-31T13:22:13.005Z,4.13
2018-05-31T13:24:40.616Z,4.40
2018-05-31T13:27:08.173Z,4.87
2018-05-31T13:29:36.497Z,5.43
2018-05-31T13:32:04.115Z,8.67
2018-05-31T13:34:32.439Z,6.43
2018-05-31T13:37:00.022Z,5.10
2018-05-31T13:39:32.686Z,4.60
2018-05-31T13:42:04.719Z,4.70
2018-05-31T13:44:32.343Z,5.70
2018-05-31T13:47:03.434Z,6.27
2018-05-31T13:49:35.922Z,6.03
2018-05-31T13:52:04.706Z,4.87
2018-05-31T13:54:34.764Z,5.23
2018-05-31T13:57:05.717Z,6.83
2018-05-31T13:59:34.578Z,7.53
2018-05-31T14:02:03.288Z,6.30
2018-05-31T14:04:33.693Z,12.17
2018-05-31T14:07:02.455Z,5.87
2018-05-31T14:09:35.251Z,4.67
2018-05-31T14:12:03.566Z,5.80
2018-05-31T14:14:31.137Z,5.33
2018-05-31T14:17:01.939Z,5.47
2018-05-31T14:19:31.476Z,5.33
2018-05-31T14:22:00.564Z,5.10
2018-05-31T14:24:31.167Z,5.40
2018-05-31T14:27:03.856Z,5.87
2018-05-31T14:29:34.063Z,5.67
2018-05-31T14:32:06.026Z,5.73
2018-05-31T14:34:36.772Z,12.43
2018-05-31T14:37:05.546Z,5.93
2018-05-31T14:39:36.935Z,8.43
2018-05-31T14:42:04.612Z,7.17
2018-05-31T14:44:32.378Z,13.40
2018-05-31T14:47:00.098Z,5.07
2018-05-31T14:49:27.788Z,5.20
2018-05-31T14:51:55.574Z,3.80
2018-05-31T14:54:23.188Z,4.47
2018-05-31T14:56:51.205Z,4.70
2018-05-31T14:59:19.054Z,4.17
2018-05-31T15:01:46.652Z,4.27
2018-05-31T15:04:14.232Z,4.07
2018-05-31T15:06:42.557Z,3.70
2018-05-31T15:09:10.155Z,3.90
2018-05-31T15:11:37.794Z,3.70
2018-05-31T15:14:05.759Z,4.03
2018-05-31T15:16:33.316Z,4.43
2018-05-31T15:19:00.870Z,4.50
2018-05-31T15:21:28.531Z,4.30
2018-05-31T15:23:56.097Z,4.43
2018-05-31T15:26:23.729Z,4.50
2018-05-31T15:28:51.338Z,4.77
2018-05-31T15:31:18.887Z,4.20
2018-05-31T15:33:46.514Z,4.37
2018-05-31T15:36:14.375Z,4.40
2018-05-31T15:38:41.980Z,4.50
2018-05-31T15:41:09.575Z,4.07
2018-05-31T15:43:37.272Z,4.67
2018-05-31T15:46:04.857Z,4.63
2018-05-31T15:48:32.417Z,4.50
2018-05-31T15:51:00.031Z,4.17
2018-05-31T15:53:27.648Z,4.20
2018-05-31T15:55:55.196Z,4.33
2018-05-31T15:58:22.812Z,4.43
2018-05-31T16:00:50.489Z,3.60
2018-05-31T16:03:18.057Z,4.10
2018-05-31T16:05:45.798Z,4.17
2018-05-31T16:08:13.339Z,4.27
2018-05-31T16:10:41.093Z,3.87
2018-05-31T16:13:09.600Z,4.10
2018-05-31T16:15:37.230Z,4.70
2018-05-31T16:18:05.726Z,4.07
2018-05-31T16:20:33.298Z,4.47
2018-05-31T16:23:00.885Z,4.30
2018-05-31T16:25:28.445Z,4.03
2018-05-31T16:27:56.008Z,4.60
2018-05-31T16:30:23.588Z,4.80
2018-05-31T16:32:51.168Z,4.07
2018-05-31T16:35:19.588Z,4.40
2018-05-31T16:37:47.161Z,4.90
2018-05-31T16:40:14.825Z,4.93
2018-05-31T16:42:42.410Z,4.40
2018-05-31T16:45:11.155Z,5.13
2018-05-31T16:47:39.113Z,4.97
2018-05-31T16:50:06.821Z,4.40
2018-05-31T16:52:34.461Z,4.23
2018-05-31T16:55:02.048Z,4.33
2018-05-31T16:57:30.418Z,3.90
2018-05-31T16:59:58.341Z,4.47
2018-05-31T17:02:25.935Z,4.70
2018-05-31T17:04:53.581Z,4.73
2018-05-31T17:07:21.207Z,5.20
2018-05-31T17:09:48.989Z,4.77
2018-05-31T17:12:17.531Z,5.50
2018-05-31T17:14:46.154Z,5.83
2018-05-31T17:17:15.271Z,6.20
2018-05-31T17:19:43.004Z,5.37
2018-05-31T17:22:10.651Z,4.57
2018-05-31T17:24:38.343Z,4.90
2018-05-31T17:27:06.025Z,5.23
2018-05-31T17:29:33.604Z,5.20
2018-05-31T17:32:02.138Z,5.30
2018-05-31T17:34:29.906Z,5.83
2018-05-31T17:36:58.795Z,5.80
2018-05-31T17:39:26.463Z,5.10
2018-05-31T17:42:20.372Z,4.97
2018-05-31T17:44:48.320Z,5.47
2018-05-31T17:47:16.066Z,5.60
2018-05-31T17:49:43.643Z,5.43
2018-05-31T17:52:11.313Z,5.40
2018-05-31T17:54:38.964Z,5.63
2018-05-31T17:57:06.729Z,4.97
2018-05-31T17:59:34.570Z,5.60
2018-05-31T18:02:03.380Z,4.60
2018-05-31T18:04:31.089Z,5.80
2018-05-31T18:06:58.881Z,6.33
2018-05-31T18:09:26.546Z,5.60
2018-05-31T18:11:54.177Z,5.83
2018-05-31T18:14:22.604Z,6.10
2018-05-31T18:16:50.250Z,7.27
2018-05-31T18:19:18.144Z,7.53
2018-05-31T18:21:46.031Z,6.73
2018-05-31T18:24:14.411Z,6.27
2018-05-31T18:26:42.306Z,5.90
2018-05-31T18:29:09.984Z,5.93
2018-05-31T18:31:37.544Z,5.70
2018-05-31T18:34:05.157Z,6.20
2018-05-31T18:36:32.776Z,7.03
2018-05-31T18:39:00.660Z,5.70
2018-05-31T18:41:28.228Z,5.80
2018-05-31T18:43:55.925Z,6.10
2018-05-31T18:46:24.300Z,5.23
2018-05-31T18:48:51.895Z,5.73
2018-05-31T18:51:20.264Z,5.83
2018-05-31T18:53:48.204Z,5.93
2018-05-31T18:56:17.058Z,5.70
2018-05-31T18:58:53.373Z,7.43
2018-05-31T19:01:21.016Z,11.20
2018-05-31T19:03:49.357Z,7.80
2018-05-31T19:06:17.907Z,6.40
2018-05-31T19:08:46.617Z,7.00
2018-05-31T19:11:14.898Z,6.63
2018-05-31T19:13:48.304Z,6.50
2018-05-31T19:16:15.953Z,6.00
2018-05-31T19:18:49.100Z,6.17
2018-05-31T19:21:17.199Z,6.03
2018-05-31T19:23:45.625Z,6.47
2018-05-31T19:37:46.831Z,7.37
2018-05-31T19:40:14.425Z,7.73
2018-05-31T19:42:48.351Z,6.87
2018-05-31T19:45:16.028Z,7.93
2018-05-31T19:47:43.620Z,8.20
2018-05-31T19:50:11.873Z,9.00
2018-05-31T19:52:45.283Z,7.60
2018-05-31T19:55:12.868Z,7.13
2018-05-31T19:57:46.826Z,6.30
2018-05-31T20:00:20.822Z,6.17
2018-05-31T20:02:54.177Z,6.23
2018-05-31T20:05:22.203Z,5.93
2018-05-31T20:07:49.823Z,6.40
2018-05-31T20:10:18.650Z,7.40
2018-05-31T20:12:46.426Z,9.77
2018-05-31T20:15:14.003Z,10.33
2018-05-31T20:17:42.171Z,10.93
2018-05-31T20:20:09.827Z,15.03
2018-05-31T20:22:37.463Z,17.80
2018-05-31T20:25:05.459Z,14.30
2018-05-31T20:27:33.031Z,11.87
2018-05-31T20:30:00.711Z,11.83
2018-05-31T20:32:28.351Z,9.40
2018-05-31T20:34:56.734Z,8.80
2018-05-31T20:37:25.816Z,6.90
2018-05-31T20:39:57.398Z,6.77
2018-05-31T20:42:25.007Z,6.10
2018-05-31T20:44:52.639Z,5.77
2018-05-31T20:47:20.988Z,5.80
2018-05-31T20:49:48.567Z,5.53
2018-05-31T20:52:16.888Z,5.33
2018-05-31T20:54:44.506Z,5.63
2018-05-31T20:57:12.941Z,5.70
2018-05-31T20:59:41.423Z,5.60
2018-05-31T21:02:09.010Z,5.83
2018-05-31T21:04:37.374Z,5.60
2018-05-31T21:07:05.765Z,5.53
2018-05-31T21:09:33.346Z,5.67
2018-05-31T21:12:01.804Z,6.03
2018-05-31T21:14:30.170Z,5.80
2018-05-31T21:16:59.367Z,6.00
2018-05-31T21:19:27.287Z,6.10
2018-05-31T21:21:54.862Z,5.90
2018-05-31T21:24:22.482Z,6.10
2018-05-31T21:26:50.895Z,5.73
2018-05-31T21:29:19.230Z,6.47
2018-05-31T21:31:46.844Z,9.00
2018-05-31T21:34:14.576Z,9.67
2018-05-31T21:36:42.898Z,9.90
2018-05-31T21:39:10.655Z,10.53
2018-05-31T21:41:38.221Z,9.10
2018-05-31T21:44:06.183Z,8.40
2018-05-31T21:46:34.765Z,10.17
2018-05-31T21:49:02.480Z,14.63
2018-05-31T21:51:30.810Z,9.90
2018-05-31T21:53:59.189Z,8.40
2018-05-31T21:56:26.781Z,8.43
2018-05-31T21:58:55.531Z,7.90
2018-05-31T22:01:23.368Z,8.17
2018-05-31T22:03:50.977Z,8.67
2018-05-31T22:06:18.571Z,8.33
2018-05-31T22:08:46.173Z,8.33
2018-05-31T22:11:13.795Z,7.80
2018-05-31T22:13:42.179Z,8.30
2018-05-31T22:16:09.964Z,9.23
2018-05-31T22:18:37.574Z,7.50
2018-05-31T22:21:05.885Z,7.50
2018-05-31T22:23:33.608Z,7.63
2018-05-31T22:26:01.996Z,8.07
2018-05-31T22:28:30.336Z,8.33
2018-05-31T22:30:57.959Z,8.93
2018-05-31T22:33:25.545Z,9.33
2018-05-31T22:35:53.139Z,7.97
2018-05-31T22:38:20.959Z,8.23
2018-05-31T22:40:48.551Z,7.57
2018-05-31T22:43:16.294Z,7.73
2018-05-31T22:45:43.908Z,8.13
2018-05-31T22:48:12.306Z,8.07
2018-05-31T22:50:39.900Z,8.10
2018-05-31T22:53:07.510Z,8.80
2018-05-31T22:55:35.824Z,8.00
2018-05-31T22:58:03.496Z,7.87
2018-05-31T23:00:31.091Z,7.30
2018-05-31T23:02:58.739Z,8.23
2018-05-31T23:05:26.352Z,7.77
2018-05-31T23:07:54.801Z,7.90
2018-05-31T23:10:22.483Z,7.50
2018-05-31T23:12:50.858Z,8.47
2018-05-31T23:15:19.216Z,8.13
2018-05-31T23:17:48.289Z,8.30
2018-05-31T23:20:15.896Z,7.93
2018-05-31T23:22:44.234Z,7.37
2018-05-31T23:25:11.902Z,7.70
2018-05-31T23:27:41.157Z,7.27
2018-05-31T23:30:08.787Z,7.37
2018-05-31T23:32:36.430Z,7.43
2018-05-31T23:35:04.048Z,7.27
2018-05-31T23:37:31.633Z,7.50
2018-05-31T23:39:59.236Z,6.80
2018-05-31T23:42:27.136Z,6.77
2018-05-31T23:44:54.877Z,7.10
2018-05-31T23:47:22.443Z,7.53
2018-05-31T23:49:50.015Z,8.87
2018-05-31T23:52:17.674Z,9.53
2018-05-31T23:54:45.428Z,10.00
2018-05-31T23:57:12.978Z,9.77
2018-05-31T23:59:40.606Z,9.00
